createdAt,value
2018-08-22T00:00:47.770Z,97149.39
2018-08-22T00:02:24.159Z,97148.77
2018-08-22T00:03:59.982Z,97148.10
2018-08-22T00:05:35.366Z,97147.11
2018-08-22T00:07:12.668Z,97148.41
2018-08-22T00:08:47.940Z,97149.75
2018-08-22T00:10:26.813Z,97148.10
2018-08-22T00:12:04.009Z,97146.34
2018-08-22T00:13:38.950Z,97145.45
2018-08-22T00:15:16.764Z,97142.81
2018-08-22T00:16:52.864Z,97139.45
2018-08-22T00:18:29.145Z,97139.91
2018-08-22T00:20:04.503Z,97146.21
2018-08-22T00:21:41.993Z,97142.41
2018-08-22T00:23:17.540Z,97137.52
2018-08-22T00:24:54.905Z,97139.67
2018-08-22T00:26:30.881Z,97138.52
2018-08-22T00:28:06.401Z,97133.72
2018-08-22T00:29:43.142Z,97133.86
2018-08-22T00:31:19.077Z,97135.11
2018-08-22T00:32:54.663Z,97128.40
2018-08-22T00:34:31.495Z,97133.45
2018-08-22T00:36:06.897Z,97131.94
2018-08-22T00:37:41.801Z,97130.52
2018-08-22T00:39:16.756Z,97126.48
2018-08-22T00:40:52.091Z,97128.63
2018-08-22T00:42:27.970Z,97128.59
2018-08-22T00:44:04.252Z,97126.92
2018-08-22T00:45:39.609Z,97125.05
2018-08-22T00:47:15.232Z,97128.05
2018-08-22T00:48:51.817Z,97121.47
2018-08-22T00:50:27.206Z,97127.98
2018-08-22T00:52:03.282Z,97130.49
2018-08-22T00:53:38.291Z,97126.29
2018-08-22T00:55:14.092Z,97127.36
2018-08-22T00:56:48.969Z,97123.56
2018-08-22T00:58:24.314Z,97122.91
2018-08-22T00:59:59.841Z,97120.98
2018-08-22T01:01:35.190Z,97122.84
2018-08-22T01:03:10.849Z,97121.19
2018-08-22T01:04:46.265Z,97126.19
2018-08-22T01:06:21.537Z,97118.23
2018-08-22T01:07:56.534Z,97118.97
2018-08-22T01:09:32.647Z,97117.47
2018-08-22T01:11:09.000Z,97116.95
2018-08-22T01:12:46.280Z,97113.16
2018-08-22T01:14:21.410Z,97109.08
2018-08-22T01:15:56.332Z,97106.02
2018-08-22T01:17:32.017Z,97108.59
2018-08-22T01:19:07.707Z,97104.00
2018-08-22T01:20:42.769Z,97105.46
2018-08-22T01:22:18.054Z,97107.09
2018-08-22T01:23:54.171Z,97105.78
2018-08-22T01:25:31.415Z,97104.34
2018-08-22T01:27:06.768Z,97101.53
2018-08-22T01:28:42.828Z,97109.36
2018-08-22T01:30:19.746Z,97098.98
2018-08-22T01:31:56.553Z,97106.09
2018-08-22T01:33:34.235Z,97098.63
2018-08-22T01:35:09.710Z,97100.01
2018-08-22T01:36:45.553Z,97096.89
2018-08-22T01:38:23.873Z,97097.37
2018-08-22T01:40:00.709Z,97098.22
2018-08-22T01:41:36.416Z,97094.38
2018-08-22T01:43:12.157Z,97092.67
2018-08-22T01:44:48.303Z,97095.45
2018-08-22T01:46:24.272Z,97095.00
2018-08-22T01:47:59.556Z,97091.23
2018-08-22T01:49:35.340Z,97088.56
2018-08-22T01:51:10.626Z,97091.99
2018-08-22T01:52:45.624Z,97095.18
2018-08-22T01:54:20.903Z,97090.54
2018-08-22T01:55:56.503Z,97094.77
2018-08-22T01:57:33.328Z,97095.63
2018-08-22T01:59:11.071Z,97091.69
2018-08-22T02:00:46.445Z,97093.00
2018-08-22T02:02:21.370Z,97098.81
2018-08-22T02:03:56.619Z,97092.47
2018-08-22T02:05:32.228Z,97093.44
2018-08-22T02:07:07.537Z,97090.60
2018-08-22T02:08:42.956Z,97083.78
2018-08-22T02:10:18.348Z,97084.19
2018-08-22T02:11:53.920Z,97084.91
2018-08-22T02:13:30.334Z,97085.94
2018-08-22T02:15:07.428Z,97083.60
2018-08-22T02:16:43.693Z,97086.51
2018-08-22T02:18:19.049Z,97079.23
2018-08-22T02:19:54.618Z,97085.53
2018-08-22T02:21:29.593Z,97083.19
2018-08-22T02:23:04.738Z,97084.86
2018-08-22T02:24:40.099Z,97082.99
2018-08-22T02:26:15.551Z,97078.62
2018-08-22T02:27:50.596Z,97078.70
2018-08-22T02:29:26.091Z,97076.00
2018-08-22T02:31:01.210Z,97076.84
2018-08-22T02:32:36.478Z,97082.84
2018-08-22T02:34:12.784Z,97076.89
2018-08-22T02:35:48.491Z,97070.19
2018-08-22T02:37:23.770Z,97075.97
2018-08-22T02:38:59.751Z,97073.09
2018-08-22T02:40:35.098Z,97073.64
2018-08-22T02:42:10.343Z,97077.03
2018-08-22T02:43:45.760Z,97073.56
2018-08-22T02:45:21.653Z,97075.80
2018-08-22T02:46:56.623Z,97072.33
2018-08-22T02:48:36.376Z,97065.70
2018-08-22T02:50:11.404Z,97071.98
2018-08-22T02:51:46.352Z,97067.84
2018-08-22T02:53:21.425Z,97069.78
2018-08-22T02:54:57.697Z,97071.30
2018-08-22T02:56:35.711Z,97074.48
2018-08-22T02:58:11.495Z,97072.18
2018-08-22T02:59:46.866Z,97074.19
2018-08-22T03:01:23.413Z,97075.41
2018-08-22T03:03:01.130Z,97074.02
2018-08-22T03:04:37.266Z,97069.97
2018-08-22T03:06:12.124Z,97067.52
2018-08-22T03:07:47.787Z,97064.48
2018-08-22T03:09:22.817Z,97066.53
2018-08-22T03:10:59.834Z,97066.73
2018-08-22T03:12:35.264Z,97064.94
2018-08-22T03:14:10.539Z,97066.18
2018-08-22T03:15:46.062Z,97071.33
2018-08-22T03:17:21.394Z,97064.41
2018-08-22T03:18:57.115Z,97063.65
2018-08-22T03:20:32.684Z,97062.47
2018-08-22T03:22:08.237Z,97060.05
2018-08-22T03:23:43.561Z,97063.55
2018-08-22T03:25:19.642Z,97054.11
2018-08-22T03:26:56.328Z,97067.66
2018-08-22T03:28:32.754Z,97055.86
2018-08-22T03:30:08.192Z,97058.21
2018-08-22T03:31:43.433Z,97059.45
2018-08-22T03:33:18.835Z,97055.85
2018-08-22T03:34:53.931Z,97047.97
2018-08-22T03:36:28.990Z,97055.02
2018-08-22T03:38:04.293Z,97057.38
2018-08-22T03:39:39.718Z,97054.56
2018-08-22T03:41:15.770Z,97062.86
2018-08-22T03:42:50.896Z,97051.37
2018-08-22T03:44:25.933Z,97058.37
2018-08-22T03:46:01.670Z,97058.43
2018-08-22T03:47:37.260Z,97052.63
2018-08-22T03:49:14.914Z,97056.86
2018-08-22T03:50:51.066Z,97048.34
2018-08-22T03:52:30.696Z,97053.73
2018-08-22T03:54:12.673Z,97052.64
2018-08-22T03:55:55.655Z,97051.63
2018-08-22T03:57:36.760Z,97052.06
2018-08-22T03:59:18.042Z,97054.26
2018-08-22T04:00:53.327Z,97048.88
2018-08-22T04:02:28.605Z,97055.11
2018-08-22T04:04:03.691Z,97049.69
2018-08-22T04:05:38.663Z,97049.83
2018-08-22T04:07:13.863Z,97052.68
2018-08-22T04:08:49.124Z,97050.45
2018-08-22T04:10:25.810Z,97051.02
2018-08-22T04:12:01.884Z,97051.58
2018-08-22T04:13:37.025Z,97051.02
2018-08-22T04:15:14.760Z,97054.26
2018-08-22T04:16:50.269Z,97057.64
2018-08-22T04:18:25.252Z,97058.45
2018-08-22T04:20:00.333Z,97052.53
2018-08-22T04:21:35.574Z,97053.77
2018-08-22T04:23:10.892Z,97051.41
2018-08-22T04:24:47.121Z,97046.11
2018-08-22T04:26:22.093Z,97053.06
2018-08-22T04:27:57.781Z,97053.26
2018-08-22T04:29:33.728Z,97048.87
2018-08-22T04:31:09.137Z,97048.11
2018-08-22T04:32:46.785Z,97046.16
2018-08-22T04:34:23.282Z,97046.78
2018-08-22T04:35:59.888Z,97046.09
2018-08-22T04:37:35.505Z,97050.15
2018-08-22T04:39:10.956Z,97045.67
2018-08-22T04:40:46.613Z,97048.00
2018-08-22T04:42:22.025Z,97043.24
2018-08-22T04:43:58.467Z,97049.86
2018-08-22T04:45:33.941Z,97042.48
2018-08-22T04:47:09.552Z,97048.00
2018-08-22T04:48:45.168Z,97045.67
2018-08-22T04:50:20.370Z,97049.48
2018-08-22T04:51:55.477Z,97054.38
2018-08-22T04:53:33.462Z,97054.38
2018-08-22T04:55:08.819Z,97050.97
2018-08-22T04:56:44.211Z,97055.00
2018-08-22T04:58:19.309Z,97054.10
2018-08-22T04:59:54.702Z,97049.73
2018-08-22T05:01:29.908Z,97056.78
2018-08-22T05:03:05.314Z,97051.26
2018-08-22T05:04:40.727Z,97049.06
2018-08-22T05:06:15.980Z,97052.73
2018-08-22T05:07:50.941Z,97057.55
2018-08-22T05:09:26.079Z,97056.26
2018-08-22T05:11:01.448Z,97052.82
2018-08-22T05:12:36.541Z,97051.44
2018-08-22T05:14:11.633Z,97048.56
2018-08-22T05:15:47.048Z,97047.02
2018-08-22T05:17:22.261Z,97047.30
2018-08-22T05:18:58.128Z,97048.55
2018-08-22T05:20:33.551Z,97045.55
2018-08-22T05:22:08.765Z,97051.55
2018-08-22T05:23:45.546Z,97052.34
2018-08-22T05:25:20.515Z,97048.81
2018-08-22T05:26:59.334Z,97049.34
2018-08-22T05:28:36.622Z,97045.80
2018-08-22T05:30:16.506Z,97050.87
2018-08-22T05:31:52.093Z,97051.56
2018-08-22T05:33:27.343Z,97047.75
2018-08-22T05:35:03.389Z,97048.19
2018-08-22T05:36:38.384Z,97053.16
2018-08-22T05:38:13.627Z,97046.50
2018-08-22T05:39:49.406Z,97048.32
2018-08-22T05:41:25.929Z,97049.00
2018-08-22T05:43:01.520Z,97041.83
2018-08-22T05:44:36.748Z,97050.05
2018-08-22T05:46:12.433Z,97047.22
2018-08-22T05:47:47.907Z,97046.79
2018-08-22T05:49:24.786Z,97047.47
2018-08-22T05:50:59.970Z,97048.69
2018-08-22T05:52:35.257Z,97047.77
2018-08-22T05:54:10.379Z,97051.18
2018-08-22T05:55:45.869Z,97047.33
2018-08-22T05:57:20.981Z,97044.95
2018-08-22T05:58:56.734Z,97047.89
2018-08-22T06:00:32.937Z,97046.80
2018-08-22T06:02:08.602Z,97044.53
2018-08-22T06:03:45.681Z,97040.00
2018-08-22T06:05:23.681Z,97044.69
2018-08-22T06:06:58.908Z,97040.55
2018-08-22T06:08:33.879Z,97045.09
2018-08-22T06:10:10.265Z,97046.36
2018-08-22T06:11:45.644Z,97040.47
2018-08-22T06:13:27.707Z,97044.75
2018-08-22T06:15:09.689Z,97041.59
2018-08-22T06:16:49.882Z,97040.34
2018-08-22T06:18:25.209Z,97042.47
2018-08-22T06:20:02.735Z,97042.48
2018-08-22T06:21:37.869Z,97044.61
2018-08-22T06:23:13.195Z,97045.09
2018-08-22T06:24:49.200Z,97039.38
2018-08-22T06:26:24.401Z,97036.05
2018-08-22T06:27:59.440Z,97036.37
2018-08-22T06:29:35.444Z,97031.69
2018-08-22T06:31:11.055Z,97035.13
2018-08-22T06:32:47.882Z,97033.09
2018-08-22T06:34:23.221Z,97038.92
2018-08-22T06:35:59.519Z,97034.67
2018-08-22T06:37:34.871Z,97032.70
2018-08-22T06:39:11.581Z,97040.33
2018-08-22T06:40:47.621Z,97039.05
2018-08-22T06:42:24.364Z,97037.50
2018-08-22T06:44:00.008Z,97036.87
2018-08-22T06:45:36.597Z,97039.92
2018-08-22T06:47:12.365Z,97037.39
2018-08-22T06:48:47.756Z,97037.92
2018-08-22T06:50:23.109Z,97036.67
2018-08-22T06:51:58.326Z,97038.25
2018-08-22T06:53:33.575Z,97037.14
2018-08-22T06:55:08.894Z,97034.53
2018-08-22T06:56:44.061Z,97034.50
2018-08-22T06:58:19.353Z,97031.92
2018-08-22T06:59:55.651Z,97031.65
2018-08-22T07:01:30.780Z,97032.62
2018-08-22T07:03:07.205Z,97030.27
2018-08-22T07:04:42.590Z,97030.45
2018-08-22T07:06:17.909Z,97027.78
2018-08-22T07:07:53.431Z,97027.41
2018-08-22T07:09:28.700Z,97028.14
2018-08-22T07:11:04.020Z,97021.37
2018-08-22T07:12:39.191Z,97027.20
2018-08-22T07:15:23.455Z,97023.00
2018-08-22T07:16:58.499Z,97027.26
2018-08-22T07:18:35.134Z,97030.08
2018-08-22T07:20:10.530Z,97028.66
2018-08-22T07:21:45.810Z,97031.47
2018-08-22T07:23:21.172Z,97027.34
2018-08-22T07:24:56.718Z,97027.20
2018-08-22T07:26:35.045Z,97027.02
2018-08-22T07:28:12.146Z,97029.81
2018-08-22T07:29:48.889Z,97030.30
2018-08-22T07:31:24.581Z,97031.20
2018-08-22T07:33:03.317Z,97033.91
2018-08-22T07:34:39.148Z,97032.16
2018-08-22T07:36:15.728Z,97033.81
2018-08-22T07:37:51.657Z,97028.89
2018-08-22T07:39:29.247Z,97032.40
2018-08-22T07:41:06.728Z,97030.45
2018-08-22T07:42:42.009Z,97032.97
2018-08-22T07:44:17.162Z,97033.95
2018-08-22T07:45:52.428Z,97034.89
2018-08-22T07:47:28.640Z,97031.59
2018-08-22T07:49:06.253Z,97036.42
2018-08-22T07:50:43.914Z,97032.77
2018-08-22T07:52:21.510Z,97036.17
2018-08-22T07:53:59.984Z,97031.75
2018-08-22T07:55:41.566Z,97029.19
2018-08-22T07:57:24.861Z,97035.72
2018-08-22T07:59:17.397Z,97031.20
2018-08-22T08:00:54.617Z,97029.66
2018-08-22T08:02:31.999Z,97032.11
2018-08-22T08:04:08.146Z,97032.10
2018-08-22T08:05:43.907Z,97032.66
2018-08-22T08:07:20.957Z,97031.38
2018-08-22T08:08:57.110Z,97032.81
2018-08-22T08:10:32.842Z,97032.57
2018-08-22T08:12:08.486Z,97030.21
2018-08-22T08:13:43.580Z,97028.47
2018-08-22T08:15:18.729Z,97035.52
2018-08-22T08:16:54.041Z,97028.63
2018-08-22T08:18:31.356Z,97031.22
2018-08-22T08:20:08.268Z,97030.51
2018-08-22T08:21:43.373Z,97032.24
2018-08-22T08:23:20.552Z,97036.61
2018-08-22T08:24:55.605Z,97032.80
2018-08-22T08:26:31.615Z,97036.44
2018-08-22T08:28:09.988Z,97035.82
2018-08-22T08:29:45.969Z,97029.01
2018-08-22T08:31:21.771Z,97039.22
2018-08-22T08:32:57.986Z,97035.11
2018-08-22T08:34:33.738Z,97029.43
2018-08-22T08:36:15.818Z,97037.78
2018-08-22T08:37:52.347Z,97026.65
2018-08-22T08:39:27.722Z,97025.66
2018-08-22T08:41:03.441Z,97030.31
2018-08-22T08:42:41.660Z,97022.36
2018-08-22T08:44:17.278Z,97014.43
2018-08-22T08:45:54.423Z,97009.08
2018-08-22T08:47:34.395Z,97014.02
2018-08-22T08:49:10.448Z,97014.77
2018-08-22T08:50:47.566Z,97011.14
2018-08-22T08:52:23.357Z,97016.48
2018-08-22T08:54:00.005Z,97008.16
2018-08-22T08:55:35.983Z,97014.34
2018-08-22T08:57:13.113Z,97016.11
2018-08-22T08:58:49.243Z,97012.16
2018-08-22T09:00:26.105Z,97012.70
2018-08-22T09:02:01.229Z,97013.34
2018-08-22T09:03:36.374Z,97018.48
2018-08-22T09:05:13.240Z,97011.84
2018-08-22T09:06:49.681Z,97010.72
2018-08-22T09:08:26.162Z,97010.24
2018-08-22T09:10:01.336Z,97009.72
2018-08-22T09:11:37.590Z,97008.20
2018-08-22T09:13:13.450Z,97011.48
2018-08-22T09:14:49.528Z,97012.80
2018-08-22T09:16:25.044Z,97012.61
2018-08-22T09:18:01.082Z,97010.00
2018-08-22T09:19:37.537Z,97007.62
2018-08-22T09:21:13.064Z,97007.12
2018-08-22T09:22:48.188Z,97003.39
2018-08-22T09:24:24.897Z,97000.58
2018-08-22T09:26:01.543Z,96998.69
2018-08-22T09:27:37.698Z,97003.20
2018-08-22T09:29:13.629Z,96998.41
2018-08-22T09:30:49.385Z,96998.76
2018-08-22T09:32:26.766Z,97001.24
2018-08-22T09:34:02.191Z,96994.62
2018-08-22T09:35:37.538Z,96988.56
2018-08-22T09:37:12.879Z,96991.56
2018-08-22T09:38:54.548Z,96985.98
2018-08-22T09:40:30.388Z,96987.22
2018-08-22T09:42:05.687Z,96990.54
2018-08-22T09:43:42.537Z,96984.44
2018-08-22T09:45:20.474Z,96990.13
2018-08-22T09:46:58.559Z,96991.13
2018-08-22T09:48:36.289Z,96990.75
2018-08-22T09:50:12.440Z,96984.35
2018-08-22T09:51:51.515Z,96982.05
2018-08-22T09:53:27.321Z,96980.78
2018-08-22T09:55:04.640Z,96975.84
2018-08-22T09:56:41.419Z,96974.35
2018-08-22T09:58:20.518Z,96978.60
2018-08-22T10:00:04.198Z,96975.98
2018-08-22T10:01:44.867Z,96973.03
2018-08-22T10:03:20.159Z,96975.39
2018-08-22T10:04:56.175Z,96976.16
2018-08-22T10:06:45.401Z,96968.96
2018-08-22T10:08:20.644Z,96964.70
2018-08-22T10:09:56.390Z,96962.97
2018-08-22T10:11:31.684Z,96966.53
2018-08-22T10:13:08.990Z,96965.22
2018-08-22T10:14:44.573Z,96958.81
2018-08-22T10:16:20.168Z,96962.78
2018-08-22T10:17:56.022Z,96963.31
2018-08-22T10:19:32.868Z,96961.13
2018-08-22T10:21:08.912Z,96960.63
2018-08-22T10:22:44.333Z,96969.77
2018-08-22T10:24:19.305Z,96964.20
2018-08-22T10:26:01.605Z,96964.31
2018-08-22T10:27:38.687Z,96963.20
2018-08-22T10:29:15.465Z,96964.06
2018-08-22T10:30:51.515Z,96960.81
2018-08-22T10:32:27.038Z,96963.27
2018-08-22T10:34:03.047Z,96960.60
2018-08-22T10:35:39.278Z,96960.07
2018-08-22T10:37:14.757Z,96956.69
2018-08-22T10:38:51.391Z,96966.51
2018-08-22T10:40:26.557Z,96962.77
2018-08-22T10:42:03.690Z,96961.68
2018-08-22T10:43:38.965Z,96955.80
2018-08-22T10:45:16.824Z,96949.75
2018-08-22T10:46:52.880Z,96957.26
2018-08-22T10:48:30.553Z,96956.56
2018-08-22T10:50:06.950Z,96951.23
2018-08-22T10:51:44.033Z,96955.66
2018-08-22T10:53:22.446Z,96956.33
2018-08-22T10:54:57.904Z,96950.28
2018-08-22T10:56:37.173Z,96950.23
2018-08-22T10:58:15.790Z,96947.89
2018-08-22T10:59:53.400Z,96944.36
2018-08-22T11:01:28.851Z,96943.18
2018-08-22T11:03:05.551Z,96951.72
2018-08-22T11:04:41.133Z,96939.91
2018-08-22T11:06:20.586Z,96942.06
2018-08-22T11:07:58.020Z,96947.30
2018-08-22T11:09:36.450Z,96948.07
2018-08-22T11:11:13.011Z,96932.67
2018-08-22T11:13:59.017Z,96944.60
2018-08-22T11:15:38.713Z,96945.66
2018-08-22T11:17:17.465Z,96938.03
2018-08-22T11:18:59.279Z,96935.94
2018-08-22T11:20:42.665Z,96935.66
2018-08-22T11:22:28.503Z,96939.33
2018-08-22T11:24:14.705Z,96933.18
2018-08-22T11:26:00.932Z,96935.56
2018-08-22T11:27:47.169Z,96933.84
2018-08-22T11:29:33.768Z,96939.08
2018-08-22T11:31:21.388Z,96931.92
2018-08-22T11:33:07.016Z,96927.09
2018-08-22T11:34:46.997Z,96924.06
2018-08-22T11:36:20.636Z,96926.34
2018-08-22T11:37:57.571Z,96919.88
2018-08-22T11:39:34.432Z,96926.53
2018-08-22T11:41:11.791Z,96929.96
2018-08-22T11:42:47.862Z,96927.16
2018-08-22T11:44:24.203Z,96930.35
2018-08-22T11:46:00.590Z,96925.57
2018-08-22T11:47:38.124Z,96919.25
2018-08-22T11:49:15.122Z,96915.01
2018-08-22T11:50:51.177Z,96922.09
2018-08-22T11:52:29.418Z,96917.58
2018-08-22T11:54:08.714Z,96907.33
2018-08-22T11:55:46.442Z,96915.31
2018-08-22T11:57:23.127Z,96924.30
2018-08-22T11:59:00.141Z,96917.74
2018-08-22T12:00:40.960Z,96919.97
2018-08-22T12:02:21.901Z,96921.14
2018-08-22T12:03:59.673Z,96922.38
2018-08-22T12:05:42.863Z,96920.38
2018-08-22T12:07:23.408Z,96920.22
2018-08-22T12:09:01.368Z,96915.81
2018-08-22T12:10:43.599Z,96921.06
2018-08-22T12:12:20.856Z,96916.08
2018-08-22T12:14:02.611Z,96915.00
2018-08-22T12:15:45.825Z,96911.66
2018-08-22T12:17:31.781Z,96906.81
2018-08-22T12:19:14.556Z,96905.69
2018-08-22T12:20:52.780Z,96908.30
2018-08-22T12:22:31.036Z,96899.60
2018-08-22T12:24:11.331Z,96907.84
2018-08-22T12:25:47.973Z,96904.89
2018-08-22T12:27:25.210Z,96902.52
2018-08-22T12:29:05.534Z,96904.89
2018-08-22T12:30:44.521Z,96911.58
2018-08-22T12:32:23.414Z,96898.44
2018-08-22T12:34:03.550Z,96900.20
2018-08-22T12:35:39.989Z,96907.68
2018-08-22T12:37:22.867Z,96906.37
2018-08-22T12:39:01.757Z,96905.53
2018-08-22T12:40:37.941Z,96904.24
2018-08-22T12:42:15.390Z,96902.58
2018-08-22T12:43:55.479Z,96898.16
2018-08-22T12:45:34.247Z,96901.02
2018-08-22T12:47:14.781Z,96901.38
2018-08-22T12:48:50.373Z,96902.40
2018-08-22T12:50:28.928Z,96897.14
2018-08-22T12:52:07.738Z,96898.66
2018-08-22T12:53:45.651Z,96894.11
2018-08-22T12:55:22.500Z,96884.27
2018-08-22T12:56:58.349Z,96887.38
2018-08-22T12:58:33.523Z,96878.73
2018-08-22T13:00:08.870Z,96878.98
2018-08-22T13:01:45.255Z,96880.58
2018-08-22T13:03:23.287Z,96886.08
2018-08-22T13:05:04.599Z,96879.35
2018-08-22T13:06:44.290Z,96882.96
2018-08-22T13:08:20.916Z,96876.03
2018-08-22T13:10:00.295Z,96883.04
2018-08-22T13:11:37.000Z,96878.59
2018-08-22T13:13:15.914Z,96884.67
2018-08-22T13:14:52.750Z,96872.61
2018-08-22T13:16:42.885Z,96870.69
2018-08-22T13:18:19.425Z,96872.69
2018-08-22T13:19:55.870Z,96869.66
2018-08-22T13:21:32.110Z,96874.09
2018-08-22T13:23:15.652Z,96872.84
2018-08-22T13:24:52.599Z,96870.05
2018-08-22T13:26:31.604Z,96876.12
2018-08-22T13:28:09.278Z,96872.82
2018-08-22T13:29:52.210Z,96867.66
2018-08-22T13:31:29.917Z,96862.39
2018-08-22T13:33:05.683Z,96867.36
2018-08-22T13:34:42.167Z,96869.59
2018-08-22T13:36:20.415Z,96877.19
2018-08-22T13:37:57.936Z,96875.23
2018-08-22T13:39:35.568Z,96876.82
2018-08-22T13:41:11.691Z,96878.50
2018-08-22T13:42:48.418Z,96872.42
2018-08-22T13:44:25.476Z,96861.30
2018-08-22T13:46:03.763Z,96869.77
2018-08-22T13:47:40.895Z,96860.37
2018-08-22T13:49:17.245Z,96860.77
2018-08-22T13:50:53.024Z,96866.59
2018-08-22T13:52:29.833Z,96861.64
2018-08-22T13:54:07.293Z,96862.91
2018-08-22T13:55:43.408Z,96858.45
2018-08-22T13:57:21.822Z,96856.65
2018-08-22T13:59:00.833Z,96855.07
2018-08-22T14:00:37.297Z,96850.34
2018-08-22T14:02:13.849Z,96851.20
2018-08-22T14:03:55.491Z,96851.83
2018-08-22T14:05:33.554Z,96858.10
2018-08-22T14:07:10.779Z,96855.53
2018-08-22T14:08:47.516Z,96854.39
2018-08-22T14:10:26.646Z,96850.58
2018-08-22T14:12:05.194Z,96847.41
2018-08-22T14:13:42.833Z,96848.42
2018-08-22T14:15:21.565Z,96848.25
2018-08-22T14:16:59.700Z,96845.52
2018-08-22T14:18:35.864Z,96843.27
2018-08-22T14:20:13.163Z,96835.78
2018-08-22T14:21:53.289Z,96833.57
2018-08-22T14:23:31.979Z,96836.78
2018-08-22T14:25:14.162Z,96840.69
2018-08-22T14:26:53.112Z,96839.23
2018-08-22T14:29:40.335Z,96841.30
2018-08-22T14:31:19.771Z,96838.94
2018-08-22T14:32:56.661Z,96833.74
2018-08-22T14:34:32.776Z,96834.61
2018-08-22T14:36:10.471Z,96834.89
2018-08-22T14:37:46.216Z,96837.61
2018-08-22T14:39:22.004Z,96834.41
2018-08-22T14:40:57.386Z,96838.39
2018-08-22T14:42:35.929Z,96828.81
2018-08-22T14:44:12.517Z,96829.50
2018-08-22T14:45:47.939Z,96834.88
2018-08-22T14:47:28.396Z,96822.73
2018-08-22T14:49:06.592Z,96835.98
2018-08-22T14:50:43.101Z,96829.45
2018-08-22T14:52:18.447Z,96837.39
2018-08-22T14:53:55.475Z,96825.06
2018-08-22T14:55:33.110Z,96826.95
2018-08-22T14:57:10.965Z,96829.81
2018-08-22T14:58:49.489Z,96829.50
2018-08-22T15:00:27.476Z,96826.07
2018-08-22T15:02:04.412Z,96828.08
2018-08-22T15:03:42.615Z,96820.91
2018-08-22T15:05:23.207Z,96819.89
2018-08-22T15:06:59.666Z,96815.28
2018-08-22T15:08:35.603Z,96822.64
2018-08-22T15:10:15.905Z,96813.78
2018-08-22T15:11:54.705Z,96813.28
2018-08-22T15:13:32.774Z,96811.27
2018-08-22T15:15:09.634Z,96812.12
2018-08-22T15:16:46.805Z,96816.13
2018-08-22T15:18:23.475Z,96807.80
2018-08-22T15:19:58.749Z,96809.91
2018-08-22T15:21:38.443Z,96811.49
2018-08-22T15:23:15.404Z,96818.72
2018-08-22T15:24:55.142Z,96808.25
2018-08-22T15:28:23.694Z,96810.52
2018-08-22T15:30:16.781Z,96817.19
2018-08-22T15:32:04.656Z,96808.53
2018-08-22T15:33:40.539Z,96805.96
2018-08-22T15:35:16.143Z,96807.25
2018-08-22T15:36:56.372Z,96802.30
2018-08-22T15:38:35.260Z,96807.04
2018-08-22T15:40:11.926Z,96806.53
2018-08-22T15:41:48.896Z,96807.16
2018-08-22T15:43:25.437Z,96803.12
2018-08-22T15:45:00.488Z,96807.94
2018-08-22T15:46:36.080Z,96804.20
2018-08-22T15:48:16.527Z,96814.47
2018-08-22T15:49:57.483Z,96808.80
2018-08-22T15:51:38.954Z,96809.39
2018-08-22T15:53:14.379Z,96804.94
2018-08-22T15:55:05.342Z,96805.73
2018-08-22T15:56:42.976Z,96809.13
2018-08-22T15:58:18.865Z,96799.53
2018-08-22T15:59:58.695Z,96807.45
2018-08-22T16:01:36.581Z,96802.43
2018-08-22T16:03:15.231Z,96802.22
2018-08-22T16:04:59.155Z,96798.58
2018-08-22T16:06:37.262Z,96800.36
2018-08-22T16:08:21.598Z,96792.67
2018-08-22T16:09:57.135Z,96788.08
2018-08-22T16:11:42.380Z,96789.98
2018-08-22T16:13:22.658Z,96780.09
2018-08-22T16:15:00.174Z,96786.92
2018-08-22T16:16:35.946Z,96785.42
2018-08-22T16:18:11.603Z,96782.77
2018-08-22T16:19:46.748Z,96785.14
2018-08-22T16:21:22.716Z,96788.14
2018-08-22T16:22:58.504Z,96782.98
2018-08-22T16:24:36.861Z,96783.75
2018-08-22T16:26:12.142Z,96785.55
2018-08-22T16:27:52.547Z,96783.77
2018-08-22T16:29:30.248Z,96786.21
2018-08-22T16:31:07.588Z,96782.45
2018-08-22T16:32:47.317Z,96783.77
2018-08-22T16:34:24.529Z,96785.66
2018-08-22T16:36:00.739Z,96784.52
2018-08-22T16:37:39.459Z,96778.43
2018-08-22T16:39:20.521Z,96783.11
2018-08-22T16:42:44.000Z,96783.41
2018-08-22T16:44:20.103Z,96783.11
2018-08-22T16:45:56.552Z,96782.19
2018-08-22T16:47:37.472Z,96776.09
2018-08-22T16:49:17.777Z,96783.21
2018-08-22T16:50:55.257Z,96787.44
2018-08-22T16:52:38.817Z,96790.05
2018-08-22T16:54:16.323Z,96785.69
2018-08-22T16:56:00.723Z,96786.83
2018-08-22T16:57:36.100Z,96782.32
2018-08-22T17:00:56.948Z,96785.13
2018-08-22T17:02:34.204Z,96782.98
2018-08-22T17:04:11.922Z,96780.44
2018-08-22T17:05:48.896Z,96784.41
2018-08-22T17:07:26.235Z,96789.57
2018-08-22T17:09:04.416Z,96786.20
2018-08-22T17:10:52.030Z,96780.30
2018-08-22T17:12:40.277Z,96779.19
2018-08-22T17:14:16.202Z,96780.94
2018-08-22T17:15:52.996Z,96779.23
2018-08-22T17:18:43.952Z,96779.69
2018-08-22T17:20:19.645Z,96780.30
2018-08-22T17:22:00.637Z,96770.08
2018-08-22T17:23:38.008Z,96774.19
2018-08-22T17:25:20.056Z,96778.89
2018-08-22T17:27:00.348Z,96771.94
2018-08-22T17:28:39.317Z,96773.23
2018-08-22T17:30:20.526Z,96772.62
2018-08-22T17:32:06.490Z,96778.05
2018-08-22T17:33:47.813Z,96776.59
2018-08-22T17:35:27.320Z,96770.81
2018-08-22T17:37:08.551Z,96775.17
2018-08-22T17:38:47.618Z,96778.06
2018-08-22T17:40:23.798Z,96777.11
2018-08-22T17:42:01.580Z,96777.91
2018-08-22T17:43:51.744Z,96781.81
2018-08-22T17:45:34.821Z,96775.73
2018-08-22T17:47:14.624Z,96781.59
2018-08-22T17:48:54.759Z,96777.45
2018-08-22T17:50:32.351Z,96779.58
2018-08-22T17:52:12.143Z,96785.02
2018-08-22T17:53:47.231Z,96783.03
2018-08-22T17:55:22.830Z,96780.68
2018-08-22T17:57:13.362Z,96783.64
2018-08-22T17:58:53.380Z,96779.71
2018-08-22T18:00:38.645Z,96790.45
2018-08-22T18:02:15.125Z,96790.41
2018-08-22T18:03:53.300Z,96793.98
2018-08-22T18:05:38.449Z,96792.70
2018-08-22T18:07:20.096Z,96787.48
2018-08-22T18:08:57.275Z,96789.80
2018-08-22T18:10:36.286Z,96796.28
2018-08-22T18:12:19.124Z,96794.17
2018-08-22T18:13:58.586Z,96794.28
2018-08-22T18:15:42.696Z,96794.11
2018-08-22T18:19:09.803Z,96801.02
2018-08-22T18:20:50.079Z,96795.66
2018-08-22T18:22:31.880Z,96802.68
2018-08-22T18:24:14.045Z,96808.92
2018-08-22T18:25:54.636Z,96799.87
2018-08-22T18:27:33.224Z,96803.98
2018-08-22T18:29:11.372Z,96807.98
2018-08-22T18:30:52.105Z,96806.47
2018-08-22T18:32:43.385Z,96802.82
2018-08-22T18:36:42.318Z,96810.20
2018-08-22T18:38:19.889Z,96816.22
2018-08-22T18:40:27.724Z,96816.64
2018-08-22T18:42:05.705Z,96823.16
2018-08-22T18:43:44.236Z,96823.47
2018-08-22T18:45:28.989Z,96824.19
2018-08-22T18:47:06.376Z,96818.67
2018-08-22T18:48:44.740Z,96829.13
2018-08-22T18:50:23.485Z,96836.09
2018-08-22T18:52:15.020Z,96838.70
2018-08-22T18:54:04.713Z,96832.59
2018-08-22T18:55:43.713Z,96832.92
2018-08-22T18:57:34.728Z,96832.95
2018-08-22T18:59:29.569Z,96833.94
2018-08-22T19:01:13.491Z,96835.70
2018-08-22T19:03:00.767Z,96841.92
2018-08-22T19:04:49.185Z,96848.39
2018-08-22T19:08:24.842Z,96847.12
2018-08-22T19:10:05.640Z,96852.50
2018-08-22T19:11:44.444Z,96852.45
2018-08-22T19:13:22.125Z,96852.09
2018-08-22T19:15:09.226Z,96848.39
2018-08-22T19:16:48.614Z,96858.83
2018-08-22T19:18:31.018Z,96856.04
2018-08-22T19:20:14.329Z,96853.20
2018-08-22T19:21:56.593Z,96856.62